メインページ
METAR-TAF:

METAR-TAF

空港 :

トリブバン国際空港

カトマンズ, ネパール

緯度: 27-42N, 経度: 085-22E, 海抜: 1337m

現時点の気象観測

当レポートは37分前の18:50(UTC)に作成
変向風 2kt
気温 21°C
湿度 94%
気圧 1015 hPa
視程: 7000m
高度2000ftの雲はほとんどない
高度3000ftの雲は散在している
高度10000ftの千切れ雲あり

METAR: VNKT 181850Z VRB02KT 7000 FEW020 SCT030 BKN100 21/20 Q1015 NOSIG

時間: 01:12 (19:27 UTC)

予報

当レポートは8時間27分前の11:00(UTC)に作成
予報は18日の 12時(UTC)から 19日の 12時(UTC)まで有効
西/南西の風 6kt
視程: 8000m
高度2000ftの雲はほとんどない
確率 30%
18日の 12時(UTC)から 18日の 16時(UTC)まで
視程: 4000m
高度2500ftの雲はほとんどない, 積乱雲.
激しい雷雨, 小雨
18日の 14時(UTC)から 18日の 15時(UTC)まで徐々に
南東の風 4kt
視程: 7000m
高度2000ftの雲はほとんどない
19日の 00時(UTC)から 19日の 02時(UTC)まで徐々に
変向風 2kt
視程: 5000m
高度1000ftの雲はほとんどない
高度10000ftの雲は散在している
19日の 04時(UTC)から 19日の 05時(UTC)まで徐々に
南東の風 4kt
視程: 7000m
高度1500ftの雲はほとんどない
19日の 07時(UTC)から 19日の 08時(UTC)まで徐々に
西/北西の風 8kt
視程: 8000m
高度2000ftの雲はほとんどない
高度3000ftの雲は散在している
確率 30%
19日の 08時(UTC)から 19日の 12時(UTC)まで
西/北西の風 12kt
視程: 4000m
高度2500ftの雲はほとんどない, 積乱雲.
高度10000ftの千切れ雲あり
激しい雷雨, 小雨

TAF: VNKT 181100Z 1812/1912 24006KT 8000 FEW020 PROB30 1812/1816 4000 -TSRA FEW025CB BECMG 1814/1815 13004KT 7000 FEW020 BECMG 1900/1902 VRB02KT 5000 BR FEW010 SCT100 BECMG 1904/1905 13004KT 7000 FEW015 BECMG 1907/1908 29008KT 8000 FEW020 SCT030 PROB30 1908/1912 30012KT 4000 -TSRA FEW025CB BKN100

4,000以上の空港の気象観測と天気予報(METAR報とTAF報)

利用可能な観測所は地図上に黄色い丸と赤い丸で示す。

丸の上にカーソルを重ねると観測所名を参照できる。

次にクリックすると気象観測と天気予報を参照できる。

マップの切り替え:黒色「×」印の緑ボタンをクリックして拡大、「-」印の緑ボタンをクリックして縮小、緑色の三角印をクリックして隣りの地図に切り替え


METAR-TAF: